This is the latest recevied weather packets stored in our database for station/object DJ0JJ-11. If no packets are shown the sender has not sent any weather packets the latest 10 day(s).
| Time | Temp. | Humidity | Pressure | Rain* | Wind** | Luminosity | Snow |
|---|---|---|---|---|---|---|---|
| 1777607907 | 8.33° C | 46% | 1026.5 hPa | - | - | - | - |
| 1777607007 | 8.33° C | 45% | 1026.5 hPa | - | - | - | - |
| 1777606107 | 7.78° C | 48% | 1026.5 hPa | - | - | - | - |
| 1777605207 | 8.33° C | 48% | 1026.4 hPa | - | - | - | - |
| 1777604307 | 8.89° C | 44% | 1026.4 hPa | - | - | - | - |
| 1777603406 | 8.89° C | 45% | 1026.4 hPa | - | - | - | - |
| 1777602506 | 8.89° C | 48% | 1026.6 hPa | - | - | - | - |
| 1777601606 | 9.44° C | 45% | 1026.6 hPa | - | - | - | - |
| 1777600706 | 9.44° C | 43% | 1026.5 hPa | - | - | - | - |
| 1777599806 | 9.44° C | 43% | 1026.5 hPa | - | - | - | - |
| 1777598906 | 9.44° C | 43% | 1026.5 hPa | - | - | - | - |
| 1777598006 | 8.89° C | 47% | 1026.6 hPa | - | - | - | - |
| 1777597106 | 9.44° C | 45% | 1026.6 hPa | - | - | - | - |
| 1777596206 | 10° C | 44% | 1026.4 hPa | - | - | - | - |
| 1777595305 | 10.56° C | 41% | 1026.3 hPa | - | - | - | - |
| 1777594405 | 11.11° C | 40% | 1026.4 hPa | - | - | - | - |
| 1777593505 | 11.11° C | 41% | 1026.3 hPa | - | - | - | - |
| 1777592605 | 11.11° C | 41% | 1026.5 hPa | - | - | - | - |
| 1777591705 | 11.11° C | 40% | 1026.5 hPa | - | - | - | - |
| 1777590805 | 11.11° C | 40% | 1026.4 hPa | - | - | - | - |
| 1777589905 | 11.67° C | 37% | 1026.3 hPa | - | - | - | - |
| 1777589004 | 11.67° C | 35% | 1026.3 hPa | - | - | - | - |
| 1777588104 | 12.78° C | 30% | 1026 hPa | - | - | - | - |
| 1777587203 | 12.78° C | 30% | 1026 hPa | - | - | - | - |
| 1777586303 | 12.78° C | 29% | 1025.9 hPa | - | - | - | - |
* Rain since midnight (hover to see other rain measurements)
** Current wind speed in m/s (hover to see current wind gust speed)